createdAt,value
2019-02-12T00:00:11.626Z,5.30
2019-02-12T00:04:25.342Z,5.50
2019-02-12T00:08:39.896Z,5.30
2019-02-12T00:12:54.477Z,5.20
2019-02-12T00:17:09.081Z,5.00
2019-02-12T00:21:23.580Z,5.60
2019-02-12T00:25:38.446Z,5.60
2019-02-12T00:29:53.185Z,5.30
2019-02-12T00:33:54.175Z,5.70
2019-02-12T00:38:14.925Z,5.70
2019-02-12T00:42:35.688Z,5.40
2019-02-12T00:46:56.448Z,5.50
2019-02-12T00:51:18.018Z,5.50
2019-02-12T00:55:39.996Z,5.30
2019-02-12T01:00:00.725Z,5.20
2019-02-12T01:04:15.287Z,4.40
2019-02-12T01:08:29.740Z,5.40
2019-02-12T01:12:44.254Z,5.10
2019-02-12T01:16:58.991Z,4.90
2019-02-12T01:21:13.616Z,5.20
2019-02-12T01:25:27.539Z,5.00
2019-02-12T01:29:41.426Z,5.40
2019-02-12T01:33:55.840Z,5.50
2019-02-12T01:38:10.481Z,5.70
2019-02-12T01:42:25.041Z,5.80
2019-02-12T01:46:39.614Z,5.60
2019-02-12T01:50:54.054Z,6.10
2019-02-12T01:54:54.949Z,6.00
2019-02-12T01:59:15.670Z,6.40
2019-02-12T02:03:29.549Z,6.50
2019-02-12T02:07:44.295Z,6.60
2019-02-12T02:11:58.919Z,5.60
2019-02-12T02:16:13.510Z,6.40
2019-02-12T02:20:14.506Z,5.70
2019-02-12T02:24:35.239Z,5.60
2019-02-12T02:28:36.115Z,6.10
2019-02-12T02:32:56.895Z,5.30
2019-02-12T02:37:17.678Z,5.90
2019-02-12T02:41:38.414Z,5.90
2019-02-12T02:45:59.165Z,6.60
2019-02-12T02:50:19.901Z,5.70
2019-02-12T02:54:41.126Z,5.50
2019-02-12T02:59:01.912Z,6.30
2019-02-12T03:03:16.640Z,6.30
2019-02-12T03:07:30.956Z,6.50
2019-02-12T03:11:45.435Z,6.10
2019-02-12T03:16:00.092Z,5.70
2019-02-12T03:20:14.838Z,5.70
2019-02-12T03:24:28.911Z,5.20
2019-02-12T03:28:43.581Z,5.80
2019-02-12T03:32:57.334Z,5.60
2019-02-12T03:37:11.831Z,5.60
2019-02-12T03:41:26.395Z,4.80
2019-02-12T03:45:40.976Z,5.20
2019-02-12T03:49:54.846Z,6.30
2019-02-12T03:54:08.793Z,5.20
2019-02-12T03:58:23.463Z,5.70
2019-02-12T04:02:37.339Z,5.70
2019-02-12T04:06:51.932Z,6.50
2019-02-12T04:11:06.185Z,5.90
2019-02-12T04:15:20.890Z,6.10
2019-02-12T04:19:21.768Z,6.50
2019-02-12T04:23:42.614Z,7.00
2019-02-12T04:28:03.383Z,5.70
2019-02-12T04:32:24.144Z,5.80
2019-02-12T04:36:44.930Z,5.70
2019-02-12T04:41:05.644Z,5.50
2019-02-12T04:45:26.380Z,6.30
2019-02-12T04:49:47.120Z,6.60
2019-02-12T04:54:07.964Z,6.00
2019-02-12T04:58:28.717Z,5.40
2019-02-12T05:02:42.645Z,6.60
2019-02-12T05:06:57.173Z,6.20
2019-02-12T05:11:11.043Z,5.50
2019-02-12T05:15:25.569Z,5.80
2019-02-12T05:19:40.283Z,5.70
2019-02-12T05:23:55.008Z,5.90
2019-02-12T05:27:56.002Z,6.20
2019-02-12T05:31:56.864Z,4.40
2019-02-12T05:36:17.819Z,5.40
2019-02-12T05:40:18.697Z,5.00
2019-02-12T05:44:39.691Z,5.10
2019-02-12T05:48:40.755Z,5.00
2019-02-12T05:52:41.695Z,5.50
2019-02-12T05:57:02.599Z,5.20
2019-02-12T06:01:23.405Z,5.30
2019-02-12T06:05:44.347Z,4.80
2019-02-12T06:09:45.240Z,4.40
2019-02-12T06:14:06.108Z,4.40
2019-02-12T06:18:26.808Z,4.50
2019-02-12T06:22:47.770Z,5.30
2019-02-12T06:27:08.597Z,4.90
2019-02-12T06:31:29.354Z,5.40
2019-02-12T06:35:50.183Z,4.70
2019-02-12T06:40:11.032Z,5.20
2019-02-12T06:44:31.908Z,6.20
2019-02-12T06:48:52.653Z,5.10
2019-02-12T06:53:13.402Z,5.70
2019-02-12T06:57:34.159Z,6.10
2019-02-12T07:01:35.051Z,5.50
2019-02-12T07:05:49.238Z,5.80
2019-02-12T07:10:03.078Z,5.90
2019-02-12T07:14:17.619Z,5.80
2019-02-12T07:18:32.328Z,5.40
2019-02-12T07:22:46.252Z,5.60
2019-02-12T07:27:00.864Z,6.40
2019-02-12T07:31:15.454Z,6.40
2019-02-12T07:35:29.958Z,6.50
2019-02-12T07:39:43.677Z,6.60
2019-02-12T07:43:58.299Z,6.90
2019-02-12T07:48:12.918Z,7.00
2019-02-12T07:52:53.546Z,6.60
2019-02-12T07:57:34.159Z,6.40
2019-02-12T08:01:48.812Z,6.60
2019-02-12T08:06:29.533Z,7.20
2019-02-12T08:11:10.167Z,7.50
2019-02-12T08:15:50.862Z,8.20
2019-02-12T08:20:31.487Z,7.20
2019-02-12T08:25:12.080Z,7.30
2019-02-12T08:29:52.781Z,7.10
2019-02-12T08:34:35.290Z,6.80
2019-02-12T08:39:15.964Z,7.30
2019-02-12T08:43:58.490Z,8.10
2019-02-12T08:48:41.046Z,7.70
2019-02-12T08:53:21.744Z,6.80
2019-02-12T08:58:02.472Z,7.40
2019-02-12T09:02:43.222Z,7.30
2019-02-12T09:07:23.832Z,7.50
2019-02-12T09:12:06.339Z,8.20
2019-02-12T09:16:47.051Z,7.70
2019-02-12T09:21:27.623Z,7.10
2019-02-12T09:26:10.142Z,7.50
2019-02-12T09:30:50.760Z,7.30
2019-02-12T09:35:33.294Z,7.20
2019-02-12T09:40:19.267Z,7.00
2019-02-12T09:44:58.416Z,6.60
2019-02-12T09:49:39.016Z,6.90
2019-02-12T09:54:21.540Z,7.10
2019-02-12T09:59:02.252Z,7.30
2019-02-12T10:03:16.033Z,6.50
2019-02-12T10:07:30.748Z,6.80
2019-02-12T10:11:45.396Z,6.70
2019-02-12T10:16:28.026Z,7.50
2019-02-12T10:21:08.747Z,8.10
2019-02-12T10:25:29.647Z,7.80
2019-02-12T10:30:10.251Z,7.30
2019-02-12T10:34:31.111Z,7.90
2019-02-12T10:38:51.812Z,8.30
2019-02-12T10:43:12.570Z,7.60
2019-02-12T10:47:33.300Z,7.20
2019-02-12T10:51:54.132Z,7.60
2019-02-12T10:56:14.879Z,8.40
2019-02-12T11:00:35.856Z,8.10
2019-02-12T11:04:49.846Z,8.20
2019-02-12T11:09:04.081Z,8.20
2019-02-12T11:13:18.157Z,7.50
2019-02-12T11:17:32.600Z,7.20
2019-02-12T11:21:47.401Z,8.00
2019-02-12T11:26:01.889Z,7.30
2019-02-12T11:30:16.269Z,7.20
2019-02-12T11:34:31.081Z,8.30
2019-02-12T11:38:45.682Z,7.60
2019-02-12T11:43:00.255Z,8.50
2019-02-12T11:47:14.077Z,8.80
2019-02-12T11:51:15.272Z,9.60
2019-02-12T11:55:36.035Z,8.60
2019-02-12T11:59:57.002Z,9.70
2019-02-12T12:04:11.640Z,9.10
2019-02-12T12:08:26.426Z,9.00
2019-02-12T12:12:40.866Z,9.60
2019-02-12T12:16:55.371Z,9.10
2019-02-12T12:21:09.168Z,9.10
2019-02-12T12:25:25.265Z,8.20
2019-02-12T12:29:26.250Z,8.60
2019-02-12T12:33:47.209Z,8.80
2019-02-12T12:38:08.081Z,9.50
2019-02-12T12:42:28.981Z,8.90
2019-02-12T12:46:49.749Z,9.50
2019-02-12T12:51:10.678Z,9.00
2019-02-12T13:00:00.799Z,9.30
2019-02-12T13:04:14.994Z,9.50
2019-02-12T13:08:29.451Z,9.00
2019-02-12T13:12:43.826Z,8.40
2019-02-12T13:16:58.491Z,9.70
2019-02-12T13:21:13.321Z,8.90
2019-02-12T13:25:27.983Z,9.60
2019-02-12T13:29:42.707Z,8.90
2019-02-12T13:33:57.383Z,8.60
2019-02-12T13:38:11.678Z,9.10
2019-02-12T13:42:12.590Z,9.80
2019-02-12T13:46:33.339Z,9.30
2019-02-12T13:50:54.048Z,9.40
2019-02-12T13:55:17.255Z,8.70
2019-02-12T13:59:37.525Z,9.10
2019-02-12T14:03:52.006Z,8.70
2019-02-12T14:08:06.435Z,8.80
2019-02-12T14:12:21.164Z,8.90
2019-02-12T14:16:35.923Z,8.80
2019-02-12T14:25:06.224Z,8.00
2019-02-12T14:29:24.545Z,9.00
2019-02-12T14:33:39.234Z,9.50
2019-02-12T14:37:40.145Z,9.90
2019-02-12T14:42:00.859Z,9.30
2019-02-12T14:46:21.631Z,8.10
2019-02-12T14:50:42.395Z,8.20
2019-02-12T14:55:03.338Z,8.60
2019-02-12T14:59:24.125Z,8.10
2019-02-12T15:03:38.254Z,8.50
2019-02-12T15:07:53.059Z,8.10
2019-02-12T15:12:07.546Z,8.60
2019-02-12T15:16:22.303Z,8.80
2019-02-12T15:20:40.518Z,8.20
2019-02-12T15:24:54.655Z,8.60
2019-02-12T15:28:55.783Z,8.70
2019-02-12T15:33:16.514Z,9.30
2019-02-12T15:37:37.408Z,9.20
2019-02-12T15:41:58.165Z,8.70
2019-02-12T15:45:59.060Z,9.00
2019-02-12T15:50:19.918Z,8.50
2019-02-12T15:54:40.646Z,8.70
2019-02-12T15:59:03.035Z,8.10
2019-02-12T16:03:18.378Z,8.60
2019-02-12T16:07:22.312Z,7.70
2019-02-12T16:11:44.107Z,8.00
2019-02-12T16:16:05.731Z,8.90
2019-02-12T16:20:29.093Z,9.20
2019-02-12T16:24:50.504Z,10.20
2019-02-12T16:29:11.273Z,9.90
2019-02-12T16:33:32.030Z,10.20
2019-02-12T16:37:33.047Z,10.50
2019-02-12T16:41:53.934Z,10.90
2019-02-12T16:46:16.074Z,11.00
2019-02-12T16:50:36.927Z,11.00
2019-02-12T16:54:57.688Z,9.80
2019-02-12T16:59:18.448Z,10.20
2019-02-12T17:03:32.476Z,9.80
2019-02-12T17:07:47.163Z,10.60
2019-02-12T17:12:01.624Z,10.50
2019-02-12T17:16:15.399Z,10.20
2019-02-12T17:20:29.434Z,10.70
2019-02-12T17:24:43.969Z,11.00
2019-02-12T17:28:58.319Z,10.70
2019-02-12T17:33:12.878Z,10.70
2019-02-12T17:37:27.633Z,10.80
2019-02-12T17:41:42.296Z,10.10
2019-02-12T17:45:56.111Z,9.80
2019-02-12T17:50:10.419Z,9.50
2019-02-12T17:54:25.066Z,10.20
2019-02-12T17:58:39.703Z,10.20
2019-02-12T18:02:54.264Z,10.20
2019-02-12T18:07:08.108Z,10.30
2019-02-12T18:11:22.033Z,10.20
2019-02-12T18:15:35.858Z,9.80
2019-02-12T18:19:50.328Z,9.80
2019-02-12T18:24:07.363Z,9.70
2019-02-12T18:28:21.713Z,9.80
2019-02-12T18:32:36.282Z,9.60
2019-02-12T18:36:50.678Z,9.10
2019-02-12T18:40:51.699Z,9.30
2019-02-12T18:44:52.608Z,9.10
2019-02-12T18:49:13.413Z,9.30
2019-02-12T18:53:14.712Z,9.10
2019-02-12T18:57:15.736Z,8.30
2019-02-12T19:01:37.187Z,9.00
2019-02-12T19:05:38.064Z,9.30
2019-02-12T19:09:59.545Z,9.10
2019-02-12T19:14:20.748Z,9.10
2019-02-12T19:23:10.999Z,8.60
2019-02-12T19:27:31.804Z,8.40
2019-02-12T19:31:32.702Z,7.80
2019-02-12T19:35:53.606Z,7.20
2019-02-12T19:40:14.389Z,7.40
2019-02-12T19:44:35.157Z,7.80
2019-02-12T19:48:56.023Z,8.10
2019-02-12T19:53:16.857Z,8.10
2019-02-12T19:57:37.808Z,7.70
2019-02-12T20:01:38.715Z,7.80
2019-02-12T20:05:52.686Z,7.70
2019-02-12T20:10:07.469Z,7.30
2019-02-12T20:14:21.848Z,7.50
2019-02-12T20:18:36.160Z,7.40
2019-02-12T20:22:50.630Z,7.50
2019-02-12T20:27:06.776Z,7.80
2019-02-12T20:31:08.871Z,7.90
2019-02-12T20:35:36.268Z,7.80
2019-02-12T20:39:33.001Z,7.70
2019-02-12T20:43:54.247Z,7.40
2019-02-12T20:48:15.182Z,7.30
2019-02-12T20:52:36.281Z,7.60
2019-02-12T20:56:57.286Z,7.50
2019-02-12T21:01:18.081Z,7.20
2019-02-12T21:05:32.153Z,7.00
2019-02-12T21:09:46.635Z,7.00
2019-02-12T21:14:01.240Z,7.10
2019-02-12T21:18:15.428Z,7.30
2019-02-12T21:22:30.090Z,7.10
2019-02-12T21:26:47.151Z,7.40
2019-02-12T21:31:01.190Z,7.20
2019-02-12T21:35:16.699Z,7.00
2019-02-12T21:39:31.618Z,7.10
2019-02-12T21:43:32.648Z,6.40
2019-02-12T21:47:53.402Z,7.10
2019-02-12T21:52:14.384Z,5.70
2019-02-12T21:56:35.307Z,5.90
2019-02-12T22:00:56.145Z,6.40
2019-02-12T22:05:11.246Z,6.50
2019-02-12T22:09:12.634Z,6.20
2019-02-12T22:13:33.544Z,6.30
2019-02-12T22:17:34.810Z,6.00
2019-02-12T22:22:15.524Z,5.90
2019-02-12T22:26:36.292Z,5.70
2019-02-12T22:30:37.181Z,6.80
2019-02-12T22:34:38.057Z,7.00
2019-02-12T22:38:58.899Z,6.90
2019-02-12T22:43:19.620Z,6.50
2019-02-12T22:47:40.531Z,6.50
2019-02-12T22:52:01.384Z,6.30
2019-02-12T22:56:22.155Z,5.30
2019-02-12T23:01:02.769Z,5.20
2019-02-12T23:05:17.191Z,5.50
2019-02-12T23:09:31.924Z,5.80
2019-02-12T23:13:46.416Z,5.80
2019-02-12T23:18:01.048Z,6.20
2019-02-12T23:22:15.765Z,6.70
2019-02-12T23:26:30.444Z,6.60
2019-02-12T23:30:45.017Z,6.50
2019-02-12T23:34:58.940Z,6.60
2019-02-12T23:39:13.648Z,6.40
2019-02-12T23:43:28.118Z,6.20
2019-02-12T23:47:41.896Z,6.00
2019-02-12T23:51:55.735Z,5.50
2019-02-12T23:56:12.146Z,5.90
